TimeEST,TemperatureF,Dew PointF,Humidity,Sea Level PressureIn,VisibilityMPH,Wind Direction,Wind SpeedMPH,Gust SpeedMPH,PrecipitationIn,Events,Conditions,WindDirDegrees,DateUTC
12:53 AM,19.9,12.9,74,30.08,10.0,NNE,9.2,-,N/A,,Overcast,30,2013-03-01 05:53:00
1:53 AM,19.0,12.9,77,30.09,8.0,Variable,3.5,-,0.00,Snow,Light Snow,0,2013-03-01 06:53:00
2:53 AM,18.0,12.0,78,30.10,8.0,Variable,4.6,-,0.00,Snow,Light Snow,0,2013-03-01 07:53:00
3:53 AM,16.0,10.9,81,30.11,10.0,NNE,8.1,-,0.00,,Overcast,20,2013-03-01 08:53:00
4:50 AM,15.8,10.4,79,30.05,10.0,NNE,8.1,-,N/A,,Overcast,30,2013-03-01 09:50:00
4:53 AM,15.1,10.0,80,30.12,10.0,NNE,5.8,-,N/A,,Overcast,30,2013-03-01 09:53:00
7:53 AM,14.0,10.0,84,30.17,6.0,North,6.9,-,0.00,Snow,Light Snow,360,2013-03-01 12:53:00
8:53 AM,14.0,9.0,80,30.19,2.5,North,8.1,-,0.00,Snow,Light Snow,10,2013-03-01 13:53:00
9:10 AM,14.0,10.4,86,30.11,1.8,Variable,4.6,-,0.00,Snow,Light Snow,0,2013-03-01 14:10:00
9:22 AM,14.0,8.6,79,30.11,2.0,North,4.6,-,0.00,Snow,Light Snow,360,2013-03-01 14:22:00
9:33 AM,14.0,8.6,79,30.11,4.0,North,4.6,-,0.00,Snow,Light Snow,10,2013-03-01 14:33:00
9:53 AM,14.0,10.0,84,30.19,4.0,North,6.9,-,0.00,Snow,Light Snow,360,2013-03-01 14:53:00
10:53 AM,16.0,10.9,81,30.20,3.0,Variable,4.6,-,0.00,Snow,Light Snow,0,2013-03-01 15:53:00
11:53 AM,18.0,12.0,78,30.20,6.0,NNE,8.1,-,0.00,Snow,Light Snow,20,2013-03-01 16:53:00
12:53 PM,19.0,12.0,74,30.19,10.0,Variable,5.8,-,0.00,,Overcast,0,2013-03-01 17:53:00
1:08 PM,19.4,12.2,74,30.11,10.0,North,6.9,-,N/A,,Mostly Cloudy,10,2013-03-01 18:08:00
1:28 PM,19.4,12.2,74,30.11,10.0,North,5.8,-,N/A,,Scattered Clouds,350,2013-03-01 18:28:00
2:53 PM,23.0,12.9,65,30.16,10.0,NNE,8.1,-,N/A,,Scattered Clouds,30,2013-03-01 19:53:00
3:53 PM,24.1,12.0,60,30.17,10.0,North,8.1,-,N/A,,Clear,10,2013-03-01 20:53:00
4:53 PM,23.0,10.9,60,30.17,10.0,North,6.9,-,N/A,,Clear,10,2013-03-01 21:53:00
5:53 PM,21.0,10.0,63,30.18,10.0,North,5.8,-,N/A,,Clear,10,2013-03-01 22:53:00
8:53 PM,18.0,8.1,65,30.20,10.0,Variable,6.9,-,N/A,,Clear,0,2013-03-02 01:53:00
9:53 PM,17.1,7.0,65,30.20,10.0,Calm,Calm,-,N/A,,Clear,0,2013-03-02 02:53:00
10:53 PM,16.0,7.0,68,30.19,10.0,Calm,Calm,-,N/A,,Clear,0,2013-03-02 03:53:00
11:53 PM,15.1,8.1,74,30.18,10.0,NNE,4.6,-,N/A,,Clear,20,2013-03-02 04:53:00